sensor_id;sensor_type;location;lat;lon;timestamp;pressure;altitude;pressure_sealevel;temperature;humidity
51321;BME280;38732;49.556;6.286;2023-03-31T00:00:53;98828.69;;;13.48;93.02
51321;BME280;38732;49.556;6.286;2023-03-31T00:03:22;98819.44;;;13.74;90.22
51321;BME280;38732;49.556;6.286;2023-03-31T00:05:55;98828.03;;;13.38;92.84
51321;BME280;38732;49.556;6.286;2023-03-31T00:08:24;98830.50;;;13.01;95.22
51321;BME280;38732;49.556;6.286;2023-03-31T00:10:53;98814.94;;;13.82;90.58
51321;BME280;38732;49.556;6.286;2023-03-31T00:13:21;98817.13;;;12.78;92.88
51321;BME280;38732;49.556;6.286;2023-03-31T00:15:55;98818.47;;;12.99;96.00
51321;BME280;38732;49.556;6.286;2023-03-31T00:18:23;98800.25;;;13.44;91.41
51321;BME280;38732;49.556;6.286;2023-03-31T00:21:05;98802.41;;;12.35;97.25
51321;BME280;38732;49.556;6.286;2023-03-31T00:23:34;98796.69;;;13.07;94.67
51321;BME280;38732;49.556;6.286;2023-03-31T00:26:02;98791.81;;;12.48;98.02
51321;BME280;38732;49.556;6.286;2023-03-31T00:28:30;98785.50;;;12.15;98.58
51321;BME280;38732;49.556;6.286;2023-03-31T00:31:02;98781.75;;;12.32;100.00
51321;BME280;38732;49.556;6.286;2023-03-31T00:33:31;98783.59;;;13.13;96.09
51321;BME280;38732;49.556;6.286;2023-03-31T00:35:59;98785.69;;;12.52;96.06
51321;BME280;38732;49.556;6.286;2023-03-31T00:38:28;98777.38;;;12.80;97.57
51321;BME280;38732;49.556;6.286;2023-03-31T00:40:57;98776.75;;;12.22;97.28
51321;BME280;38732;49.556;6.286;2023-03-31T00:43:34;98772.09;;;12.41;100.00
51321;BME280;38732;49.556;6.286;2023-03-31T00:46:30;98755.75;;;11.88;100.00
51321;BME280;38732;49.556;6.286;2023-03-31T00:49:00;98764.75;;;11.64;100.00
51321;BME280;38732;49.556;6.286;2023-03-31T00:51:31;98763.72;;;11.17;100.00
51321;BME280;38732;49.556;6.286;2023-03-31T00:54:05;98751.94;;;10.97;100.00
51321;BME280;38732;49.556;6.286;2023-03-31T00:56:36;98744.56;;;11.32;100.00
51321;BME280;38732;49.556;6.286;2023-03-31T00:59:10;98750.88;;;11.70;100.00
51321;BME280;38732;49.556;6.286;2023-03-31T01:01:41;98746.31;;;11.28;100.00
51321;BME280;38732;49.556;6.286;2023-03-31T01:04:12;98745.13;;;10.92;100.00
51321;BME280;38732;49.556;6.286;2023-03-31T01:06:53;98733.00;;;10.95;100.00
51321;BME280;38732;49.556;6.286;2023-03-31T01:09:23;98724.69;;;11.35;100.00
51321;BME280;38732;49.556;6.286;2023-03-31T01:11:52;98724.69;;;11.37;100.00
51321;BME280;38732;49.556;6.286;2023-03-31T01:14:20;98709.44;;;11.73;100.00
51321;BME280;38732;49.556;6.286;2023-03-31T01:16:48;98691.75;;;12.46;100.00
51321;BME280;38732;49.556;6.286;2023-03-31T01:19:26;98697.91;;;11.94;100.00
51321;BME280;38732;49.556;6.286;2023-03-31T01:22:28;98705.97;;;11.19;100.00
51321;BME280;38732;49.556;6.286;2023-03-31T01:25:37;98702.41;;;11.28;100.00
51321;BME280;38732;49.556;6.286;2023-03-31T01:28:53;98685.00;;;11.41;100.00
51321;BME280;38732;49.556;6.286;2023-03-31T01:34:56;98670.50;;;11.31;100.00
51321;BME280;38732;49.556;6.286;2023-03-31T01:37:55;98668.94;;;11.73;100.00
51321;BME280;38732;49.556;6.286;2023-03-31T01:40:47;98656.59;;;11.89;100.00
51321;BME280;38732;49.556;6.286;2023-03-31T01:43:25;98654.88;;;11.88;100.00
51321;BME280;38732;49.556;6.286;2023-03-31T01:46:03;98660.44;;;11.12;100.00
51321;BME280;38732;49.556;6.286;2023-03-31T01:48:58;98654.75;;;11.44;100.00
51321;BME280;38732;49.556;6.286;2023-03-31T01:51:34;98635.53;;;12.51;100.00
51321;BME280;38732;49.556;6.286;2023-03-31T01:54:19;98631.03;;;12.61;100.00
51321;BME280;38732;49.556;6.286;2023-03-31T01:57:02;98624.06;;;11.76;100.00
51321;BME280;38732;49.556;6.286;2023-03-31T01:59:48;98614.34;;;12.32;100.00
51321;BME280;38732;49.556;6.286;2023-03-31T02:02:25;98594.41;;;13.13;100.00
51321;BME280;38732;49.556;6.286;2023-03-31T02:05:01;98589.59;;;13.34;99.59
51321;BME280;38732;49.556;6.286;2023-03-31T02:07:35;98566.53;;;13.22;99.56
51321;BME280;38732;49.556;6.286;2023-03-31T02:10:07;98533.88;;;13.49;97.19
51321;BME280;38732;49.556;6.286;2023-03-31T02:12:38;98521.50;;;13.26;98.59
51321;BME280;38732;49.556;6.286;2023-03-31T02:15:11;98504.31;;;13.56;96.33
51321;BME280;38732;49.556;6.286;2023-03-31T02:17:43;98513.66;;;13.62;95.26
51321;BME280;38732;49.556;6.286;2023-03-31T02:20:16;98532.63;;;13.64;95.64
51321;BME280;38732;49.556;6.286;2023-03-31T02:22:52;98507.28;;;13.73;95.01
51321;BME280;38732;49.556;6.286;2023-03-31T02:25:27;98502.03;;;13.75;94.32
51321;BME280;38732;49.556;6.286;2023-03-31T02:28:06;98482.88;;;13.80;94.02
51321;BME280;38732;49.556;6.286;2023-03-31T02:30:44;98472.50;;;13.80;94.82
51321;BME280;38732;49.556;6.286;2023-03-31T02:33:12;98462.94;;;13.81;94.90
51321;BME280;38732;49.556;6.286;2023-03-31T02:35:41;98444.78;;;13.81;95.44
51321;BME280;38732;49.556;6.286;2023-03-31T02:38:09;98427.66;;;13.75;95.76
51321;BME280;38732;49.556;6.286;2023-03-31T02:40:38;98412.72;;;13.84;94.63
51321;BME280;38732;49.556;6.286;2023-03-31T02:43:06;98417.28;;;13.75;95.11
51321;BME280;38732;49.556;6.286;2023-03-31T02:45:46;98404.31;;;13.75;95.26
51321;BME280;38732;49.556;6.286;2023-03-31T02:48:23;98383.56;;;13.75;95.59
51321;BME280;38732;49.556;6.286;2023-03-31T02:51:03;98397.41;;;13.74;95.43
51321;BME280;38732;49.556;6.286;2023-03-31T02:53:51;98396.53;;;13.75;92.68
51321;BME280;38732;49.556;6.286;2023-03-31T02:59:42;98391.28;;;13.77;92.09
51321;BME280;38732;49.556;6.286;2023-03-31T03:05:17;98403.31;;;13.79;93.36
51321;BME280;38732;49.556;6.286;2023-03-31T03:08:22;98406.72;;;13.81;93.27
51321;BME280;38732;49.556;6.286;2023-03-31T03:11:03;98410.72;;;13.64;94.34
51321;BME280;38732;49.556;6.286;2023-03-31T03:13:55;98404.13;;;13.81;93.78
51321;BME280;38732;49.556;6.286;2023-03-31T03:16:32;98402.59;;;13.74;93.47
51321;BME280;38732;49.556;6.286;2023-03-31T03:19:05;98403.31;;;13.79;93.94
51321;BME280;38732;49.556;6.286;2023-03-31T03:21:34;98404.16;;;13.80;93.99
51321;BME280;38732;49.556;6.286;2023-03-31T03:24:02;98411.00;;;13.82;94.45
51321;BME280;38732;49.556;6.286;2023-03-31T03:26:30;98394.47;;;13.85;95.52
51321;BME280;38732;49.556;6.286;2023-03-31T03:28:58;98379.78;;;13.86;95.86
51321;BME280;38732;49.556;6.286;2023-03-31T03:31:27;98370.44;;;13.80;95.67
51321;BME280;38732;49.556;6.286;2023-03-31T03:33:55;98337.03;;;13.69;94.41
51321;BME280;38732;49.556;6.286;2023-03-31T03:36:23;98350.50;;;13.52;96.08
51321;BME280;38732;49.556;6.286;2023-03-31T03:38:51;98350.38;;;13.57;96.17
51321;BME280;38732;49.556;6.286;2023-03-31T03:41:19;98344.25;;;13.59;96.42
51321;BME280;38732;49.556;6.286;2023-03-31T03:43:48;98335.63;;;13.31;99.59
51321;BME280;38732;49.556;6.286;2023-03-31T03:46:16;98341.75;;;13.56;97.96
51321;BME280;38732;49.556;6.286;2023-03-31T03:48:44;98353.03;;;13.55;96.63
51321;BME280;38732;49.556;6.286;2023-03-31T03:51:12;98332.19;;;13.58;95.92
51321;BME280;38732;49.556;6.286;2023-03-31T03:53:40;98327.13;;;13.54;97.00
51321;BME280;38732;49.556;6.286;2023-03-31T03:56:09;98326.19;;;13.56;97.76
51321;BME280;38732;49.556;6.286;2023-03-31T03:58:37;98314.13;;;13.55;98.37
51321;BME280;38732;49.556;6.286;2023-03-31T04:01:05;98308.88;;;13.57;98.47
51321;BME280;38732;49.556;6.286;2023-03-31T04:03:33;98303.03;;;13.50;98.64
51321;BME280;38732;49.556;6.286;2023-03-31T04:06:01;98297.19;;;13.44;99.78
51321;BME280;38732;49.556;6.286;2023-03-31T04:08:30;98289.28;;;13.48;99.53
51321;BME280;38732;49.556;6.286;2023-03-31T04:10:58;98280.63;;;13.48;98.89
51321;BME280;38732;49.556;6.286;2023-03-31T04:13:26;98273.75;;;13.47;99.41
51321;BME280;38732;49.556;6.286;2023-03-31T04:15:54;98268.53;;;13.48;99.52
51321;BME280;38732;49.556;6.286;2023-03-31T04:18:22;98265.00;;;13.51;99.07
51321;BME280;38732;49.556;6.286;2023-03-31T04:20:52;98263.28;;;13.50;98.69
51321;BME280;38732;49.556;6.286;2023-03-31T04:23:21;98250.38;;;13.48;98.53
51321;BME280;38732;49.556;6.286;2023-03-31T04:25:49;98241.28;;;13.35;100.00
51321;BME280;38732;49.556;6.286;2023-03-31T04:28:18;98226.53;;;13.37;100.00
51321;BME280;38732;49.556;6.286;2023-03-31T04:30:46;98218.03;;;13.32;100.00
51321;BME280;38732;49.556;6.286;2023-03-31T04:33:14;98209.03;;;13.44;100.00
51321;BME280;38732;49.556;6.286;2023-03-31T04:35:42;98203.97;;;13.41;100.00
51321;BME280;38732;49.556;6.286;2023-03-31T04:38:10;98200.69;;;13.34;100.00
51321;BME280;38732;49.556;6.286;2023-03-31T04:40:39;98206.06;;;13.28;100.00
51321;BME280;38732;49.556;6.286;2023-03-31T04:43:07;98191.97;;;13.36;100.00
51321;BME280;38732;49.556;6.286;2023-03-31T04:45:35;98181.84;;;13.29;100.00
51321;BME280;38732;49.556;6.286;2023-03-31T04:48:03;98176.78;;;13.24;100.00
51321;BME280;38732;49.556;6.286;2023-03-31T04:50:32;98175.63;;;13.06;100.00
51321;BME280;38732;49.556;6.286;2023-03-31T04:53:01;98169.53;;;13.07;100.00
51321;BME280;38732;49.556;6.286;2023-03-31T04:55:30;98152.63;;;13.24;100.00
51321;BME280;38732;49.556;6.286;2023-03-31T04:57:58;98149.84;;;13.30;100.00
51321;BME280;38732;49.556;6.286;2023-03-31T05:00:27;98147.25;;;13.30;100.00
51321;BME280;38732;49.556;6.286;2023-03-31T05:02:55;98130.81;;;13.31;100.00
51321;BME280;38732;49.556;6.286;2023-03-31T05:05:23;98136.13;;;13.26;100.00
51321;BME280;38732;49.556;6.286;2023-03-31T05:07:51;98137.81;;;13.27;100.00
51321;BME280;38732;49.556;6.286;2023-03-31T05:10:19;98134.56;;;13.21;100.00
51321;BME280;38732;49.556;6.286;2023-03-31T05:12:48;98126.50;;;13.30;100.00
51321;BME280;38732;49.556;6.286;2023-03-31T05:15:16;98122.84;;;12.52;100.00
51321;BME280;38732;49.556;6.286;2023-03-31T05:17:44;98124.47;;;13.13;100.00
51321;BME280;38732;49.556;6.286;2023-03-31T05:20:13;98119.09;;;13.17;100.00
51321;BME280;38732;49.556;6.286;2023-03-31T05:22:41;98128.88;;;12.53;100.00
51321;BME280;38732;49.556;6.286;2023-03-31T05:25:10;98141.44;;;11.01;100.00
51321;BME280;38732;49.556;6.286;2023-03-31T05:27:38;98127.00;;;11.97;100.00
51321;BME280;38732;49.556;6.286;2023-03-31T05:30:06;98116.78;;;12.54;100.00
51321;BME280;38732;49.556;6.286;2023-03-31T05:32:36;98122.19;;;12.74;100.00
51321;BME280;38732;49.556;6.286;2023-03-31T05:35:04;98130.41;;;12.30;100.00
51321;BME280;38732;49.556;6.286;2023-03-31T05:37:33;98122.81;;;12.82;100.00
51321;BME280;38732;49.556;6.286;2023-03-31T05:40:01;98117.50;;;12.87;100.00
51321;BME280;38732;49.556;6.286;2023-03-31T05:42:29;98106.91;;;13.21;100.00
51321;BME280;38732;49.556;6.286;2023-03-31T05:44:58;98116.41;;;12.06;100.00
51321;BME280;38732;49.556;6.286;2023-03-31T05:47:26;98131.53;;;12.80;100.00
51321;BME280;38732;49.556;6.286;2023-03-31T05:49:54;98117.03;;;12.15;100.00
51321;BME280;38732;49.556;6.286;2023-03-31T05:52:22;98111.63;;;12.22;100.00
51321;BME280;38732;49.556;6.286;2023-03-31T05:54:51;98103.91;;;11.91;100.00
51321;BME280;38732;49.556;6.286;2023-03-31T05:57:19;98108.69;;;10.24;100.00
51321;BME280;38732;49.556;6.286;2023-03-31T05:59:47;98095.94;;;11.64;100.00
51321;BME280;38732;49.556;6.286;2023-03-31T06:02:15;98103.31;;;11.45;100.00
51321;BME280;38732;49.556;6.286;2023-03-31T06:04:43;98094.78;;;11.08;100.00
51321;BME280;38732;49.556;6.286;2023-03-31T06:07:12;98085.72;;;11.93;100.00
51321;BME280;38732;49.556;6.286;2023-03-31T06:09:40;98088.88;;;11.71;100.00
51321;BME280;38732;49.556;6.286;2023-03-31T06:12:08;98102.63;;;11.73;100.00
51321;BME280;38732;49.556;6.286;2023-03-31T06:14:36;98113.41;;;11.22;100.00
51321;BME280;38732;49.556;6.286;2023-03-31T06:17:04;98094.78;;;12.09;100.00
51321;BME280;38732;49.556;6.286;2023-03-31T06:19:33;98100.81;;;12.08;100.00
51321;BME280;38732;49.556;6.286;2023-03-31T06:22:01;98114.56;;;11.44;100.00
51321;BME280;38732;49.556;6.286;2023-03-31T06:24:29;98105.53;;;11.61;100.00
51321;BME280;38732;49.556;6.286;2023-03-31T06:26:57;98103.34;;;12.11;100.00
51321;BME280;38732;49.556;6.286;2023-03-31T06:29:26;98106.66;;;11.83;100.00
51321;BME280;38732;49.556;6.286;2023-03-31T06:31:54;98113.97;;;11.68;100.00
51321;BME280;38732;49.556;6.286;2023-03-31T06:34:23;98103.94;;;12.21;100.00
51321;BME280;38732;49.556;6.286;2023-03-31T06:36:51;98117.75;;;11.20;100.00
51321;BME280;38732;49.556;6.286;2023-03-31T06:39:19;98120.59;;;11.09;100.00
51321;BME280;38732;49.556;6.286;2023-03-31T06:41:47;98113.13;;;10.60;100.00
51321;BME280;38732;49.556;6.286;2023-03-31T06:44:16;98117.78;;;11.53;100.00
51321;BME280;38732;49.556;6.286;2023-03-31T06:46:44;98108.31;;;11.86;100.00
51321;BME280;38732;49.556;6.286;2023-03-31T06:49:12;98110.00;;;11.54;100.00
51321;BME280;38732;49.556;6.286;2023-03-31T06:51:40;98095.66;;;11.75;100.00
51321;BME280;38732;49.556;6.286;2023-03-31T06:54:08;98113.00;;;11.37;100.00
51321;BME280;38732;49.556;6.286;2023-03-31T06:56:37;98102.94;;;10.53;100.00
51321;BME280;38732;49.556;6.286;2023-03-31T06:59:05;98097.09;;;10.84;100.00
51321;BME280;38732;49.556;6.286;2023-03-31T07:01:33;98103.19;;;11.52;100.00
51321;BME280;38732;49.556;6.286;2023-03-31T07:04:02;98108.44;;;11.14;100.00
51321;BME280;38732;49.556;6.286;2023-03-31T07:06:30;98114.59;;;11.09;100.00
51321;BME280;38732;49.556;6.286;2023-03-31T07:08:58;98106.69;;;10.79;100.00
51321;BME280;38732;49.556;6.286;2023-03-31T07:11:27;98107.34;;;10.87;100.00
51321;BME280;38732;49.556;6.286;2023-03-31T07:13:55;98109.34;;;11.12;100.00
51321;BME280;38732;49.556;6.286;2023-03-31T07:16:23;98103.03;;;11.23;100.00
51321;BME280;38732;49.556;6.286;2023-03-31T07:18:51;98102.63;;;11.05;100.00
51321;BME280;38732;49.556;6.286;2023-03-31T07:21:19;98091.00;;;11.22;100.00
51321;BME280;38732;49.556;6.286;2023-03-31T07:23:48;98084.09;;;10.87;100.00
51321;BME280;38732;49.556;6.286;2023-03-31T07:26:16;98091.81;;;10.89;100.00
51321;BME280;38732;49.556;6.286;2023-03-31T07:28:44;98078.13;;;11.21;100.00
51321;BME280;38732;49.556;6.286;2023-03-31T07:31:13;98076.78;;;11.05;100.00
51321;BME280;38732;49.556;6.286;2023-03-31T07:33:42;98072.06;;;11.55;100.00
51321;BME280;38732;49.556;6.286;2023-03-31T07:36:10;98076.28;;;11.59;100.00
51321;BME280;38732;49.556;6.286;2023-03-31T07:38:40;98070.91;;;11.66;100.00
51321;BME280;38732;49.556;6.286;2023-03-31T07:41:10;98076.56;;;11.81;100.00
51321;BME280;38732;49.556;6.286;2023-03-31T07:43:39;98083.84;;;11.66;100.00
51321;BME280;38732;49.556;6.286;2023-03-31T07:46:19;98076.63;;;11.78;100.00
51321;BME280;38732;49.556;6.286;2023-03-31T07:48:48;98077.66;;;11.39;100.00
51321;BME280;38732;49.556;6.286;2023-03-31T07:51:19;98072.69;;;12.27;100.00
51321;BME280;38732;49.556;6.286;2023-03-31T07:53:48;98058.56;;;12.93;100.00
51321;BME280;38732;49.556;6.286;2023-03-31T07:56:19;98053.56;;;12.87;100.00
51321;BME280;38732;49.556;6.286;2023-03-31T07:58:48;98057.38;;;11.57;100.00
51321;BME280;38732;49.556;6.286;2023-03-31T08:01:18;98057.34;;;11.58;100.00
51321;BME280;38732;49.556;6.286;2023-03-31T08:03:47;98053.97;;;11.22;100.00
51321;BME280;38732;49.556;6.286;2023-03-31T08:06:21;98059.84;;;11.29;100.00
51321;BME280;38732;49.556;6.286;2023-03-31T08:08:49;98057.63;;;11.48;100.00
51321;BME280;38732;49.556;6.286;2023-03-31T08:11:18;98055.50;;;11.31;100.00
51321;BME280;38732;49.556;6.286;2023-03-31T08:13:46;98042.16;;;11.46;100.00
51321;BME280;38732;49.556;6.286;2023-03-31T08:16:14;98049.19;;;11.07;100.00
51321;BME280;38732;49.556;6.286;2023-03-31T08:18:42;98045.28;;;11.57;100.00
51321;BME280;38732;49.556;6.286;2023-03-31T08:21:11;98043.72;;;11.53;100.00
51321;BME280;38732;49.556;6.286;2023-03-31T08:23:39;98065.44;;;11.12;100.00
51321;BME280;38732;49.556;6.286;2023-03-31T08:26:08;98061.91;;;11.80;100.00
51321;BME280;38732;49.556;6.286;2023-03-31T08:28:37;98059.72;;;11.33;100.00
51321;BME280;38732;49.556;6.286;2023-03-31T08:31:06;98061.38;;;11.36;100.00
51321;BME280;38732;49.556;6.286;2023-03-31T08:33:35;98054.03;;;11.53;100.00
51321;BME280;38732;49.556;6.286;2023-03-31T08:36:05;98059.44;;;11.77;100.00
51321;BME280;38732;49.556;6.286;2023-03-31T08:38:34;98064.59;;;11.77;100.00
51321;BME280;38732;49.556;6.286;2023-03-31T08:41:04;98054.78;;;11.90;100.00
51321;BME280;38732;49.556;6.286;2023-03-31T08:43:41;98051.03;;;12.00;100.00
51321;BME280;38732;49.556;6.286;2023-03-31T08:46:12;98044.34;;;11.93;100.00
51321;BME280;38732;49.556;6.286;2023-03-31T08:48:51;98039.94;;;12.54;100.00
51321;BME280;38732;49.556;6.286;2023-03-31T08:51:27;98037.75;;;12.12;100.00
51321;BME280;38732;49.556;6.286;2023-03-31T08:54:00;98047.88;;;12.48;99.48
51321;BME280;38732;49.556;6.286;2023-03-31T08:56:34;98034.91;;;12.21;97.15
51321;BME280;38732;49.556;6.286;2023-03-31T08:59:03;98030.19;;;12.06;98.16
51321;BME280;38732;49.556;6.286;2023-03-31T09:16:58;98013.84;;;12.60;93.75
51321;BME280;38732;49.556;6.286;2023-03-31T09:18:54;98018.56;;;12.76;91.10
51321;BME280;38732;49.556;6.286;2023-03-31T09:21:33;98019.88;;;12.87;90.86
51321;BME280;38732;49.556;6.286;2023-03-31T09:24:11;98020.03;;;12.28;91.98
51321;BME280;38732;49.556;6.286;2023-03-31T09:29:21;98029.69;;;11.93;95.53
51321;BME280;38732;49.556;6.286;2023-03-31T09:31:51;98011.78;;;11.54;100.00
51321;BME280;38732;49.556;6.286;2023-03-31T09:34:24;98011.69;;;11.57;100.00
51321;BME280;38732;49.556;6.286;2023-03-31T09:36:52;98008.69;;;11.73;100.00
51321;BME280;38732;49.556;6.286;2023-03-31T09:39:21;98010.19;;;11.80;99.38
51321;BME280;38732;49.556;6.286;2023-03-31T09:41:50;98003.09;;;12.18;99.23
51321;BME280;38732;49.556;6.286;2023-03-31T09:47:12;98016.47;;;12.32;89.88
51321;BME280;38732;49.556;6.286;2023-03-31T09:49:44;97999.44;;;12.53;92.43
51321;BME280;38732;49.556;6.286;2023-03-31T09:52:34;97988.78;;;12.89;90.24
51321;BME280;38732;49.556;6.286;2023-03-31T09:55:16;97994.50;;;12.72;88.37
51321;BME280;38732;49.556;6.286;2023-03-31T09:57:45;97987.78;;;12.66;86.60
51321;BME280;38732;49.556;6.286;2023-03-31T10:00:17;97998.66;;;12.49;87.20
51321;BME280;38732;49.556;6.286;2023-03-31T10:02:50;97983.31;;;12.97;87.01
51321;BME280;38732;49.556;6.286;2023-03-31T10:08:33;97981.31;;;13.31;83.96
51321;BME280;38732;49.556;6.286;2023-03-31T10:11:06;97996.84;;;12.80;85.42
51321;BME280;38732;49.556;6.286;2023-03-31T10:14:02;97994.50;;;13.24;83.61
51321;BME280;38732;49.556;6.286;2023-03-31T10:16:33;97974.25;;;13.84;82.93
51321;BME280;38732;49.556;6.286;2023-03-31T10:19:39;97976.50;;;13.46;82.58
51321;BME280;38732;49.556;6.286;2023-03-31T10:22:25;97967.97;;;13.89;82.38
51321;BME280;38732;49.556;6.286;2023-03-31T10:25:08;97973.56;;;13.78;80.35
51321;BME280;38732;49.556;6.286;2023-03-31T10:27:38;97965.34;;;14.79;79.96
51321;BME280;38732;49.556;6.286;2023-03-31T10:30:10;97965.59;;;13.59;75.83
51321;BME280;38732;49.556;6.286;2023-03-31T10:32:41;97973.66;;;13.28;79.54
51321;BME280;38732;49.556;6.286;2023-03-31T10:35:21;97966.19;;;12.92;84.43
51321;BME280;38732;49.556;6.286;2023-03-31T10:37:54;97973.34;;;12.59;88.11
51321;BME280;38732;49.556;6.286;2023-03-31T10:40:26;97974.88;;;12.91;88.88
51321;BME280;38732;49.556;6.286;2023-03-31T10:43:08;97983.34;;;13.47;84.93
51321;BME280;38732;49.556;6.286;2023-03-31T10:45:46;97980.53;;;14.00;80.69
51321;BME280;38732;49.556;6.286;2023-03-31T10:48:29;97973.38;;;13.59;83.76
51321;BME280;38732;49.556;6.286;2023-03-31T10:51:03;97972.44;;;13.12;87.67
51321;BME280;38732;49.556;6.286;2023-03-31T10:54:00;98018.25;;;12.85;88.05
51321;BME280;38732;49.556;6.286;2023-03-31T11:02:04;97973.66;;;13.28;84.44
51321;BME280;38732;49.556;6.286;2023-03-31T11:12:59;97967.53;;;14.23;77.66
51321;BME280;38732;49.556;6.286;2023-03-31T11:15:58;97958.94;;;14.43;76.70
51321;BME280;38732;49.556;6.286;2023-03-31T11:18:34;97978.06;;;13.97;78.63
51321;BME280;38732;49.556;6.286;2023-03-31T11:21:19;97991.22;;;13.19;83.44
51321;BME280;38732;49.556;6.286;2023-03-31T11:35:17;97973.53;;;11.65;95.92
51321;BME280;38732;49.556;6.286;2023-03-31T11:43:14;97965.78;;;12.25;89.28
51321;BME280;38732;49.556;6.286;2023-03-31T11:45:53;97967.41;;;13.07;84.59
51321;BME280;38732;49.556;6.286;2023-03-31T11:51:23;97952.19;;;14.17;76.44
51321;BME280;38732;49.556;6.286;2023-03-31T11:53:55;97951.19;;;13.76;80.56
51321;BME280;38732;49.556;6.286;2023-03-31T11:56:32;97938.72;;;14.30;79.54
51321;BME280;38732;49.556;6.286;2023-03-31T11:59:03;97939.03;;;14.66;77.75
51321;BME280;38732;49.556;6.286;2023-03-31T12:04:38;97914.63;;;17.96;66.93
51321;BME280;38732;49.556;6.286;2023-03-31T12:07:29;97912.16;;;17.28;61.63
51321;BME280;38732;49.556;6.286;2023-03-31T12:10:16;97916.25;;;17.32;62.11
51321;BME280;38732;49.556;6.286;2023-03-31T12:13:03;97931.03;;;16.63;66.87
51321;BME280;38732;49.556;6.286;2023-03-31T12:15:38;97932.53;;;16.13;67.90
51321;BME280;38732;49.556;6.286;2023-03-31T12:18:12;97926.88;;;15.47;64.06
51321;BME280;38732;49.556;6.286;2023-03-31T12:20:50;97913.38;;;15.78;64.94
51321;BME280;38732;49.556;6.286;2023-03-31T12:23:27;97904.19;;;16.61;63.01
51321;BME280;38732;49.556;6.286;2023-03-31T12:26:08;97921.94;;;15.99;66.63
51321;BME280;38732;49.556;6.286;2023-03-31T12:28:42;97911.97;;;15.71;68.88
51321;BME280;38732;49.556;6.286;2023-03-31T12:31:22;97891.44;;;16.20;66.33
51321;BME280;38732;49.556;6.286;2023-03-31T12:34:01;97873.38;;;17.53;58.34
51321;BME280;38732;49.556;6.286;2023-03-31T12:36:38;97875.19;;;18.77;52.32
51321;BME280;38732;49.556;6.286;2023-03-31T12:42:23;97882.56;;;17.11;57.31
51321;BME280;38732;49.556;6.286;2023-03-31T12:45:09;97912.28;;;15.63;62.48
51321;BME280;38732;49.556;6.286;2023-03-31T12:56:03;97917.72;;;14.58;78.00
51321;BME280;38732;49.556;6.286;2023-03-31T12:58:43;97973.25;;;11.76;100.00
51321;BME280;38732;49.556;6.286;2023-03-31T13:01:24;97952.94;;;12.22;100.00
51321;BME280;38732;49.556;6.286;2023-03-31T13:04:19;97938.41;;;12.18;100.00
51321;BME280;38732;49.556;6.286;2023-03-31T13:06:53;97914.06;;;13.27;99.85
51321;BME280;38732;49.556;6.286;2023-03-31T13:11:49;97903.16;;;13.88;100.00
51321;BME280;38732;49.556;6.286;2023-03-31T13:14:36;97891.34;;;15.08;97.44
51321;BME280;38732;49.556;6.286;2023-03-31T13:20:14;97883.03;;;15.58;84.44
51321;BME280;38732;49.556;6.286;2023-03-31T13:22:45;97867.13;;;14.66;86.77
51321;BME280;38732;49.556;6.286;2023-03-31T13:28:07;97867.47;;;14.15;84.41
51321;BME280;38732;49.556;6.286;2023-03-31T13:33:10;97833.91;;;14.94;87.81
51321;BME280;38732;49.556;6.286;2023-03-31T13:35:44;97829.75;;;14.89;84.65
51321;BME280;38732;49.556;6.286;2023-03-31T13:49:54;97849.47;;;14.32;69.39
51321;BME280;38732;49.556;6.286;2023-03-31T13:52:38;97836.72;;;14.06;75.60
51321;BME280;38732;49.556;6.286;2023-03-31T13:55:43;97836.16;;;15.01;74.55
51321;BME280;38732;49.556;6.286;2023-03-31T13:58:39;97833.88;;;15.14;73.49
51321;BME280;38732;49.556;6.286;2023-03-31T14:01:49;97849.13;;;15.22;70.81
51321;BME280;38732;49.556;6.286;2023-03-31T14:09:41;97830.50;;;14.10;76.65
51321;BME280;38732;49.556;6.286;2023-03-31T14:14:52;97839.84;;;13.24;76.16
51321;BME280;38732;49.556;6.286;2023-03-31T14:17:23;97841.38;;;13.53;74.56
51321;BME280;38732;49.556;6.286;2023-03-31T14:20:12;97846.56;;;13.75;74.60
51321;BME280;38732;49.556;6.286;2023-03-31T14:22:59;97846.53;;;14.19;75.55
51321;BME280;38732;49.556;6.286;2023-03-31T14:28:28;97836.97;;;13.32;79.24
51321;BME280;38732;49.556;6.286;2023-03-31T14:36:46;97826.59;;;13.99;80.77
51321;BME280;38732;49.556;6.286;2023-03-31T14:39:23;97828.22;;;14.22;75.89
51321;BME280;38732;49.556;6.286;2023-03-31T14:41:56;97843.59;;;12.67;87.91
51321;BME280;38732;49.556;6.286;2023-03-31T14:44:26;97836.69;;;13.16;87.42
51321;BME280;38732;49.556;6.286;2023-03-31T14:46:57;97835.44;;;14.16;86.12
51321;BME280;38732;49.556;6.286;2023-03-31T14:49:28;97849.59;;;12.69;86.93
51321;BME280;38732;49.556;6.286;2023-03-31T14:52:00;97854.53;;;12.75;90.41
51321;BME280;38732;49.556;6.286;2023-03-31T14:54:33;97885.16;;;12.89;92.75
51321;BME280;38732;49.556;6.286;2023-03-31T14:57:01;97841.88;;;13.16;100.00
51321;BME280;38732;49.556;6.286;2023-03-31T14:59:32;97841.38;;;13.75;96.58
51321;BME280;38732;49.556;6.286;2023-03-31T15:02:03;97843.03;;;13.78;95.00
51321;BME280;38732;49.556;6.286;2023-03-31T15:04:39;97848.44;;;13.72;99.51
51321;BME280;38732;49.556;6.286;2023-03-31T15:07:09;97838.28;;;13.44;91.76
51321;BME280;38732;49.556;6.286;2023-03-31T15:09:47;97821.00;;;13.66;89.01
51321;BME280;38732;49.556;6.286;2023-03-31T15:12:18;97819.19;;;13.68;88.05
51321;BME280;38732;49.556;6.286;2023-03-31T15:14:49;97824.41;;;13.45;88.36
51321;BME280;38732;49.556;6.286;2023-03-31T15:17:30;97842.19;;;13.07;86.79
51321;BME280;38732;49.556;6.286;2023-03-31T15:19:59;97825.56;;;12.89;91.69
51321;BME280;38732;49.556;6.286;2023-03-31T15:22:29;97838.16;;;13.23;93.08
51321;BME280;38732;49.556;6.286;2023-03-31T15:24:57;97846.34;;;12.37;100.00
51321;BME280;38732;49.556;6.286;2023-03-31T15:27:37;97864.34;;;12.40;100.00